createdAt,value
2018-03-07T00:01:41.602Z,62.33
2018-03-07T00:04:09.080Z,63.80
2018-03-07T00:06:36.544Z,57.10
2018-03-07T00:09:04.001Z,57.83
2018-03-07T00:11:31.457Z,59.50
2018-03-07T00:13:58.923Z,59.87
2018-03-07T00:16:27.156Z,53.50
2018-03-07T00:18:54.844Z,64.60
2018-03-07T00:21:22.297Z,59.73
2018-03-07T00:23:49.769Z,59.47
2018-03-07T00:26:17.218Z,54.93
2018-03-07T00:28:44.689Z,54.13
2018-03-07T00:31:12.156Z,54.40
2018-03-07T00:33:40.377Z,57.50
2018-03-07T00:36:07.837Z,57.83
2018-03-07T00:38:35.294Z,55.23
2018-03-07T00:41:02.766Z,53.50
2018-03-07T00:43:30.250Z,59.40
2018-03-07T00:45:57.718Z,56.90
2018-03-07T00:48:25.221Z,52.03
2018-03-07T00:50:53.449Z,51.13
2018-03-07T00:53:21.679Z,55.37
2018-03-07T00:55:49.148Z,54.30
2018-03-07T00:58:16.607Z,58.77
2018-03-07T01:00:44.084Z,49.33
2018-03-07T01:03:11.538Z,54.10
2018-03-07T01:05:38.994Z,57.67
2018-03-07T01:08:06.453Z,48.43
2018-03-07T01:10:33.908Z,56.77
2018-03-07T01:13:01.370Z,51.70
2018-03-07T01:15:28.834Z,52.63
2018-03-07T01:17:56.301Z,50.60
2018-03-07T01:20:24.539Z,52.60
2018-03-07T01:22:52.751Z,55.50
2018-03-07T01:25:20.973Z,53.00
2018-03-07T01:27:48.433Z,54.37
2018-03-07T01:30:15.880Z,60.60
2018-03-07T01:32:43.349Z,54.43
2018-03-07T01:35:10.806Z,47.20
2018-03-07T01:37:38.281Z,49.60
2018-03-07T01:40:05.729Z,50.50
2018-03-07T01:42:33.183Z,50.03
2018-03-07T01:45:00.634Z,48.33
2018-03-07T01:47:28.105Z,48.60
2018-03-07T01:49:55.565Z,49.60
2018-03-07T01:52:23.029Z,51.20
2018-03-07T01:54:51.244Z,53.03
2018-03-07T01:57:19.486Z,50.33
2018-03-07T01:59:46.937Z,47.30
2018-03-07T02:02:14.386Z,50.50
2018-03-07T02:04:41.833Z,46.67
2018-03-07T02:07:09.293Z,48.47
2018-03-07T02:09:36.750Z,50.00
2018-03-07T02:12:04.206Z,45.30
2018-03-07T02:14:31.657Z,48.23
2018-03-07T02:16:59.114Z,48.50
2018-03-07T02:19:26.568Z,45.40
2018-03-07T02:21:54.030Z,46.73
2018-03-07T02:24:21.490Z,49.17
2018-03-07T02:26:48.950Z,47.13
2018-03-07T02:29:16.402Z,47.47
2018-03-07T02:31:43.862Z,52.37
2018-03-07T02:34:11.334Z,48.63
2018-03-07T02:36:38.790Z,50.30
2018-03-07T02:39:06.261Z,47.53
2018-03-07T02:41:33.713Z,47.73
2018-03-07T02:44:01.162Z,46.60
2018-03-07T02:46:28.617Z,52.70
2018-03-07T02:48:56.091Z,46.27
2018-03-07T02:51:23.566Z,48.37
2018-03-07T02:53:51.811Z,50.10
2018-03-07T02:56:19.241Z,46.77
2018-03-07T02:58:46.717Z,47.43
2018-03-07T03:01:14.169Z,49.23
2018-03-07T03:03:41.640Z,48.10
2018-03-07T03:06:09.109Z,49.20
2018-03-07T03:08:36.564Z,52.83
2018-03-07T03:11:04.026Z,50.77
2018-03-07T03:13:31.477Z,49.53
2018-03-07T03:15:58.928Z,45.63
2018-03-07T03:18:26.394Z,47.23
2018-03-07T03:20:53.842Z,47.70
2018-03-07T03:23:21.308Z,50.20
2018-03-07T03:25:48.754Z,49.30
2018-03-07T03:28:16.221Z,50.73
2018-03-07T03:30:43.674Z,49.33
2018-03-07T03:33:11.139Z,46.17
2018-03-07T03:35:38.598Z,49.10
2018-03-07T03:38:06.057Z,45.50
2018-03-07T03:40:33.508Z,49.40
2018-03-07T03:43:00.964Z,51.53
2018-03-07T03:45:28.430Z,48.77
2018-03-07T03:47:55.889Z,49.37
2018-03-07T03:50:23.348Z,47.00
2018-03-07T03:52:50.797Z,45.97
2018-03-07T03:55:18.253Z,46.67
2018-03-07T03:57:45.716Z,44.83
2018-03-07T04:00:13.169Z,46.97
2018-03-07T04:02:40.625Z,46.40
2018-03-07T04:05:08.889Z,46.53
2018-03-07T04:07:36.370Z,49.43
2018-03-07T04:10:03.824Z,48.00
2018-03-07T04:12:31.276Z,46.27
2018-03-07T04:14:58.740Z,45.13
2018-03-07T04:17:26.984Z,49.20
2018-03-07T04:19:54.453Z,48.67
2018-03-07T04:22:21.930Z,52.20
2018-03-07T04:24:50.204Z,46.63
2018-03-07T04:27:17.661Z,44.67
2018-03-07T04:29:45.117Z,42.97
2018-03-07T04:32:12.569Z,44.90
2018-03-07T04:34:40.034Z,44.77
2018-03-07T04:37:07.495Z,42.40
2018-03-07T04:39:34.960Z,51.73
2018-03-07T04:42:02.410Z,46.97
2018-03-07T04:44:29.866Z,50.43
2018-03-07T04:46:57.321Z,47.30
2018-03-07T04:49:24.794Z,45.43
2018-03-07T04:51:53.016Z,47.50
2018-03-07T04:54:20.483Z,48.03
2018-03-07T04:56:47.933Z,44.30
2018-03-07T04:59:15.390Z,46.97
2018-03-07T05:01:42.854Z,44.10
2018-03-07T05:04:10.311Z,49.80
2018-03-07T05:06:37.774Z,47.37
2018-03-07T05:09:05.244Z,45.73
2018-03-07T05:11:32.710Z,44.63
2018-03-07T05:14:00.164Z,50.57
2018-03-07T05:16:27.630Z,46.67
2018-03-07T05:18:55.081Z,47.33
2018-03-07T05:21:22.537Z,47.33
2018-03-07T05:23:50.013Z,50.40
2018-03-07T05:26:17.470Z,50.07
2018-03-07T05:28:45.705Z,55.27
2018-03-07T05:31:13.267Z,50.33
2018-03-07T05:33:40.725Z,42.17
2018-03-07T05:36:08.205Z,50.90
2018-03-07T05:38:35.657Z,48.17
2018-03-07T05:41:03.109Z,57.10
2018-03-07T05:43:30.583Z,50.73
2018-03-07T05:45:58.042Z,46.70
2018-03-07T05:48:26.273Z,47.10
2018-03-07T05:50:53.737Z,48.53
2018-03-07T05:53:21.204Z,57.30
2018-03-07T05:55:48.665Z,44.03
2018-03-07T05:58:16.150Z,50.30
2018-03-07T06:00:43.595Z,49.50
2018-03-07T06:03:11.057Z,53.73
2018-03-07T06:05:38.509Z,53.20
2018-03-07T06:08:05.968Z,51.63
2018-03-07T06:10:33.433Z,46.10
2018-03-07T06:13:00.901Z,50.93
2018-03-07T06:15:29.136Z,48.33
2018-03-07T06:17:56.600Z,48.37
2018-03-07T06:20:24.099Z,51.33
2018-03-07T06:22:51.516Z,50.43
2018-03-07T06:25:18.987Z,49.40
2018-03-07T06:27:46.446Z,51.03
2018-03-07T06:30:13.905Z,42.43
2018-03-07T06:32:41.366Z,49.77
2018-03-07T06:35:08.817Z,46.20
2018-03-07T06:37:36.286Z,51.87
2018-03-07T06:40:03.736Z,45.60
2018-03-07T06:42:31.194Z,50.20
2018-03-07T06:44:58.645Z,48.07
2018-03-07T06:47:26.107Z,47.87
2018-03-07T06:49:53.565Z,52.93
2018-03-07T06:52:21.029Z,43.57
2018-03-07T06:54:48.490Z,46.30
2018-03-07T06:57:16.732Z,46.57
2018-03-07T06:59:44.219Z,52.73
2018-03-07T07:02:11.685Z,47.43
2018-03-07T07:04:39.916Z,45.70
2018-03-07T07:07:07.385Z,47.30
2018-03-07T07:09:34.846Z,48.20
2018-03-07T07:12:02.334Z,50.43
2018-03-07T07:14:30.569Z,45.23
2018-03-07T07:16:58.022Z,39.20
2018-03-07T07:19:25.501Z,48.47
2018-03-07T07:21:52.966Z,42.63
2018-03-07T07:24:21.222Z,49.90
2018-03-07T07:26:48.665Z,42.53
2018-03-07T07:29:16.133Z,43.60
2018-03-07T07:31:43.585Z,46.03
2018-03-07T07:34:11.057Z,43.50
2018-03-07T07:36:38.525Z,44.00
2018-03-07T07:39:05.997Z,43.63
2018-03-07T07:41:33.496Z,45.40
2018-03-07T07:44:00.974Z,43.50
2018-03-07T07:46:28.437Z,48.43
2018-03-07T07:48:55.901Z,43.40
2018-03-07T07:51:23.374Z,45.33
2018-03-07T07:53:50.889Z,43.10
2018-03-07T07:56:18.357Z,42.43
2018-03-07T07:58:45.814Z,45.50
2018-03-07T08:01:13.282Z,48.13
2018-03-07T08:03:40.765Z,45.83
2018-03-07T08:06:08.219Z,45.77
2018-03-07T08:08:35.681Z,43.27
2018-03-07T08:11:03.138Z,45.17
2018-03-07T08:13:30.589Z,42.97
2018-03-07T08:15:58.066Z,45.53
2018-03-07T08:18:25.533Z,44.13
2018-03-07T08:20:53.786Z,44.33
2018-03-07T08:23:21.237Z,42.20
2018-03-07T08:25:48.698Z,42.20
2018-03-07T08:28:16.981Z,44.70
2018-03-07T08:30:44.434Z,48.90
2018-03-07T08:33:11.901Z,43.03
2018-03-07T08:35:39.374Z,47.93
2018-03-07T08:38:07.586Z,47.57
2018-03-07T08:40:35.056Z,45.00
2018-03-07T08:43:02.505Z,43.03
2018-03-07T08:45:29.980Z,45.40
2018-03-07T08:47:58.222Z,41.73
2018-03-07T08:50:25.716Z,45.80
2018-03-07T08:52:53.512Z,43.63
2018-03-07T08:55:21.033Z,44.37
2018-03-07T08:57:48.485Z,45.00
2018-03-07T09:00:15.961Z,43.90
2018-03-07T09:02:43.435Z,46.27
2018-03-07T09:05:10.932Z,48.93
2018-03-07T09:07:38.405Z,40.67
2018-03-07T09:10:05.900Z,47.47
2018-03-07T09:12:33.371Z,48.97
2018-03-07T09:15:00.825Z,42.50
2018-03-07T09:17:29.090Z,49.50
2018-03-07T09:19:56.545Z,48.13
2018-03-07T09:22:24.000Z,40.13
2018-03-07T09:24:51.449Z,45.63
2018-03-07T09:27:18.913Z,47.77
2018-03-07T09:29:46.382Z,43.40
2018-03-07T09:32:13.837Z,46.87
2018-03-07T09:34:41.291Z,46.87
2018-03-07T09:37:08.738Z,42.00
2018-03-07T09:39:36.193Z,42.77
2018-03-07T09:42:03.662Z,41.50
2018-03-07T09:44:31.122Z,46.30
2018-03-07T09:46:58.582Z,39.30
2018-03-07T09:49:26.033Z,40.20
2018-03-07T09:51:53.511Z,42.47
2018-03-07T09:54:21.732Z,46.37
2018-03-07T09:56:49.206Z,42.20
2018-03-07T09:59:16.649Z,42.03
2018-03-07T10:01:44.116Z,43.50
2018-03-07T10:04:11.587Z,36.10
2018-03-07T10:06:39.055Z,42.40
2018-03-07T10:09:06.516Z,42.80
2018-03-07T10:11:33.974Z,36.80
2018-03-07T10:14:02.218Z,41.13
2018-03-07T10:16:29.689Z,42.93
2018-03-07T10:18:57.133Z,39.53
2018-03-07T10:21:24.602Z,34.77
2018-03-07T10:23:52.073Z,37.40
2018-03-07T10:26:19.532Z,35.13
2018-03-07T10:28:46.989Z,37.70
2018-03-07T10:31:14.456Z,36.47
2018-03-07T10:33:42.704Z,36.70
2018-03-07T10:36:10.161Z,33.40
2018-03-07T10:38:37.631Z,36.03
2018-03-07T10:41:05.101Z,35.07
2018-03-07T10:43:32.566Z,34.30
2018-03-07T10:46:00.797Z,34.80
2018-03-07T10:48:28.289Z,34.60
2018-03-07T10:50:55.753Z,33.90
2018-03-07T10:53:23.213Z,32.77
2018-03-07T10:55:50.665Z,33.60
2018-03-07T10:58:18.126Z,33.03
2018-03-07T11:00:46.353Z,33.83
2018-03-07T11:03:13.818Z,38.43
2018-03-07T11:05:41.288Z,34.00
2018-03-07T11:08:08.772Z,31.73
2018-03-07T11:10:36.219Z,33.20
2018-03-07T11:13:03.695Z,31.20
2018-03-07T11:15:31.933Z,32.13
2018-03-07T11:17:59.417Z,33.00
2018-03-07T11:20:26.889Z,30.43
2018-03-07T11:22:55.138Z,30.70
2018-03-07T11:25:22.606Z,38.83
2018-03-07T11:27:50.073Z,30.07
2018-03-07T11:30:18.309Z,34.07
2018-03-07T11:32:45.766Z,29.50
2018-03-07T11:35:13.224Z,28.23
2018-03-07T11:37:40.694Z,29.93
2018-03-07T11:40:08.175Z,25.87
2018-03-07T11:42:36.401Z,25.87
2018-03-07T11:45:03.869Z,25.23
2018-03-07T11:47:31.325Z,23.53
2018-03-07T11:49:58.784Z,25.37
2018-03-07T11:52:26.241Z,27.57
2018-03-07T11:54:54.471Z,24.10
2018-03-07T11:57:22.704Z,24.90
2018-03-07T11:59:50.184Z,22.87
2018-03-07T12:02:17.645Z,26.53
2018-03-07T12:04:45.117Z,27.50
2018-03-07T12:07:13.397Z,29.07
2018-03-07T12:09:40.838Z,25.23
2018-03-07T12:12:09.081Z,26.77
2018-03-07T12:14:36.566Z,27.50
2018-03-07T12:17:04.026Z,25.43
2018-03-07T12:19:31.508Z,26.43
2018-03-07T12:21:58.938Z,29.33
2018-03-07T12:24:26.400Z,26.70
2018-03-07T12:26:53.870Z,30.13
2018-03-07T12:29:22.097Z,28.93
2018-03-07T12:31:49.564Z,29.40
2018-03-07T12:34:17.045Z,25.83
2018-03-07T12:36:44.504Z,29.87
2018-03-07T12:39:11.963Z,27.90
2018-03-07T12:41:39.427Z,31.37
2018-03-07T12:44:06.878Z,31.47
2018-03-07T12:46:34.341Z,30.70
2018-03-07T12:49:02.586Z,34.23
2018-03-07T12:51:30.071Z,33.27
2018-03-07T12:53:57.525Z,34.37
2018-03-07T12:56:24.981Z,34.07
2018-03-07T12:58:52.429Z,33.97
2018-03-07T13:01:19.893Z,32.53
2018-03-07T13:03:47.354Z,33.53
2018-03-07T13:06:14.866Z,34.10
2018-03-07T13:08:42.320Z,35.40
2018-03-07T13:11:09.814Z,36.50
2018-03-07T13:13:37.275Z,34.27
2018-03-07T13:16:04.743Z,41.23
2018-03-07T13:18:32.202Z,36.83
2018-03-07T13:20:59.654Z,38.97
2018-03-07T13:23:27.119Z,46.40
2018-03-07T13:25:54.574Z,45.07
2018-03-07T13:28:22.032Z,44.30
2018-03-07T13:30:49.494Z,43.27
2018-03-07T13:33:17.732Z,44.83
2018-03-07T13:35:45.206Z,42.87
2018-03-07T13:38:12.678Z,46.47
2018-03-07T13:40:40.133Z,46.27
2018-03-07T13:43:07.598Z,44.97
2018-03-07T13:45:35.053Z,46.70
2018-03-07T13:48:02.507Z,45.70
2018-03-07T13:50:29.964Z,45.80
2018-03-07T13:52:57.423Z,44.50
2018-03-07T13:55:24.881Z,46.73
2018-03-07T13:57:52.339Z,45.80
2018-03-07T14:00:19.800Z,45.60
2018-03-07T14:02:47.261Z,42.90
2018-03-07T14:05:15.510Z,43.17
2018-03-07T14:07:43.043Z,46.30
2018-03-07T14:10:10.506Z,46.03
2018-03-07T14:12:37.978Z,45.27
2018-03-07T14:15:05.440Z,42.97
2018-03-07T14:17:32.905Z,41.27
2018-03-07T14:20:00.372Z,48.20
2018-03-07T14:22:27.834Z,44.97
2018-03-07T14:24:55.291Z,45.43
2018-03-07T14:29:55.693Z,44.70
2018-03-07T14:32:23.165Z,44.77
2018-03-07T14:34:50.649Z,44.93
2018-03-07T14:37:18.105Z,44.00
2018-03-07T14:39:45.572Z,43.90
2018-03-07T14:42:13.022Z,44.07
2018-03-07T14:47:15.069Z,44.97
2018-03-07T14:49:43.298Z,48.03
2018-03-07T14:52:10.765Z,39.70
2018-03-07T14:54:38.257Z,44.77
2018-03-07T14:57:05.733Z,40.47
2018-03-07T14:59:33.218Z,44.93
2018-03-07T15:02:01.463Z,42.90
2018-03-07T15:04:28.941Z,43.70
2018-03-07T15:06:56.398Z,48.10
2018-03-07T15:09:23.858Z,47.83
2018-03-07T15:11:51.312Z,48.13
2018-03-07T15:14:18.782Z,48.47
2018-03-07T15:16:47.055Z,50.40
2018-03-07T15:19:14.509Z,53.93
2018-03-07T15:21:41.966Z,55.60
2018-03-07T15:24:09.425Z,55.63
2018-03-07T15:26:36.882Z,53.43
2018-03-07T15:29:04.346Z,50.43
2018-03-07T15:31:32.586Z,55.17
2018-03-07T15:34:00.070Z,51.67
2018-03-07T15:36:27.525Z,52.03
2018-03-07T15:38:55.030Z,53.87
2018-03-07T15:41:22.510Z,52.30
2018-03-07T15:43:50.002Z,50.13
2018-03-07T15:46:17.463Z,53.20
2018-03-07T15:48:44.925Z,53.93
2018-03-07T15:51:13.236Z,52.63
2018-03-07T15:53:40.699Z,52.17
2018-03-07T15:56:08.162Z,52.47
2018-03-07T15:58:35.624Z,57.00
2018-03-07T16:01:03.852Z,57.47
2018-03-07T16:03:32.074Z,51.60
2018-03-07T16:05:59.677Z,51.10
2018-03-07T16:08:27.121Z,49.10
2018-03-07T16:10:54.588Z,53.63
2018-03-07T16:13:22.052Z,48.83
2018-03-07T16:15:50.302Z,53.03
2018-03-07T16:18:17.760Z,54.53
2018-03-07T16:20:45.245Z,47.73
2018-03-07T16:23:13.503Z,49.57
2018-03-07T16:25:40.974Z,50.03
2018-03-07T16:28:08.436Z,50.43
2018-03-07T16:30:35.920Z,50.67
2018-03-07T16:33:03.421Z,50.23
2018-03-07T16:35:30.882Z,47.10
2018-03-07T16:37:59.097Z,49.03
2018-03-07T16:40:27.340Z,45.10
2018-03-07T16:42:54.810Z,46.83
2018-03-07T16:45:23.067Z,49.90
2018-03-07T16:47:50.548Z,51.20
2018-03-07T16:50:18.005Z,48.87
2018-03-07T16:52:45.465Z,47.37
2018-03-07T16:55:13.718Z,47.37
2018-03-07T16:57:41.181Z,49.37
2018-03-07T17:00:08.652Z,49.90
2018-03-07T17:02:36.118Z,44.57
2018-03-07T17:05:04.368Z,44.80
2018-03-07T17:07:31.846Z,47.83
2018-03-07T17:10:00.078Z,50.67
2018-03-07T17:12:27.566Z,47.93
2018-03-07T17:14:55.246Z,47.80
2018-03-07T17:17:22.773Z,48.27
2018-03-07T17:19:50.247Z,49.47
2018-03-07T17:22:18.538Z,45.57
2018-03-07T17:24:45.994Z,46.73
2018-03-07T17:27:13.470Z,48.33
2018-03-07T17:29:41.735Z,48.00
2018-03-07T17:32:09.984Z,46.97
2018-03-07T17:34:37.519Z,46.43
2018-03-07T17:37:06.537Z,49.43
2018-03-07T17:39:34.010Z,43.43
2018-03-07T17:42:01.466Z,46.60
2018-03-07T17:44:28.934Z,46.20
2018-03-07T17:46:56.412Z,47.77
2018-03-07T17:49:24.644Z,48.87
2018-03-07T17:51:52.125Z,49.57
2018-03-07T17:54:19.578Z,46.67
2018-03-07T17:56:47.066Z,49.30
2018-03-07T17:59:14.617Z,48.77
2018-03-07T18:01:42.845Z,44.97
2018-03-07T18:04:10.313Z,45.73
2018-03-07T18:06:37.773Z,44.67
2018-03-07T18:09:05.283Z,47.90
2018-03-07T18:11:32.700Z,49.77
2018-03-07T18:14:00.153Z,46.90
2018-03-07T18:16:27.613Z,44.77
2018-03-07T18:18:55.077Z,49.47
2018-03-07T18:21:22.529Z,45.93
2018-03-07T18:23:49.988Z,52.40
2018-03-07T18:26:17.446Z,48.30
2018-03-07T18:28:44.902Z,46.93
2018-03-07T18:31:12.359Z,46.33
2018-03-07T18:33:39.821Z,47.73
2018-03-07T18:36:08.061Z,47.83
2018-03-07T18:38:35.975Z,50.97
2018-03-07T18:41:03.471Z,49.43
2018-03-07T18:43:30.930Z,54.00
2018-03-07T18:45:58.385Z,58.80
2018-03-07T18:48:25.858Z,62.07
2018-03-07T18:50:53.314Z,65.33
2018-03-07T18:53:20.818Z,65.27
2018-03-07T18:55:49.059Z,70.30
2018-03-07T18:58:16.530Z,74.17
2018-03-07T19:00:45.485Z,72.67
2018-03-07T19:03:12.959Z,70.13
2018-03-07T19:05:41.218Z,73.10
2018-03-07T19:08:08.675Z,69.33
2018-03-07T19:10:36.140Z,76.43
2018-03-07T19:13:03.604Z,75.37
2018-03-07T19:15:31.061Z,72.93
2018-03-07T19:17:58.528Z,73.70
2018-03-07T19:20:26.011Z,73.90
2018-03-07T19:22:53.474Z,74.63
2018-03-07T19:25:20.930Z,69.57
2018-03-07T19:27:48.380Z,68.47
2018-03-07T19:30:15.839Z,71.57
2018-03-07T19:32:43.294Z,71.50
2018-03-07T19:35:10.770Z,68.23
2018-03-07T19:37:38.245Z,67.40
2018-03-07T19:40:06.488Z,69.20
2018-03-07T19:42:33.996Z,67.23
2018-03-07T19:45:01.462Z,69.83
2018-03-07T19:47:28.915Z,64.17
2018-03-07T19:49:56.400Z,67.53
2018-03-07T19:52:23.878Z,63.00
2018-03-07T19:54:51.334Z,68.73
2018-03-07T19:57:18.790Z,65.37
2018-03-07T19:59:46.249Z,65.30
2018-03-07T20:02:13.705Z,71.60
2018-03-07T20:04:41.163Z,64.30
2018-03-07T20:07:08.617Z,70.70
2018-03-07T20:09:36.082Z,65.10
2018-03-07T20:12:03.535Z,77.17
2018-03-07T20:14:31.009Z,78.67
2018-03-07T20:16:59.247Z,92.43
2018-03-07T20:19:26.725Z,94.53
2018-03-07T20:21:54.198Z,95.33
2018-03-07T20:24:22.481Z,100.00
2018-03-07T20:26:50.704Z,109.07
2018-03-07T20:29:18.170Z,110.50
2018-03-07T20:31:45.658Z,110.13
2018-03-07T20:34:13.115Z,114.07
2018-03-07T20:36:40.578Z,122.53
2018-03-07T20:39:08.842Z,114.97
2018-03-07T20:41:37.093Z,118.53
2018-03-07T20:44:04.579Z,108.30
2018-03-07T20:46:32.043Z,107.77
2018-03-07T20:49:00.289Z,112.57
2018-03-07T20:51:27.748Z,104.40
2018-03-07T20:53:55.205Z,111.77
2018-03-07T20:56:22.690Z,105.93
2018-03-07T20:58:50.145Z,97.30
2018-03-07T21:01:18.393Z,98.70
2018-03-07T21:03:45.878Z,100.50
2018-03-07T21:06:13.335Z,104.80
2018-03-07T21:08:40.809Z,103.13
2018-03-07T21:11:09.070Z,102.80
2018-03-07T21:13:36.529Z,96.07
2018-03-07T21:16:04.196Z,91.22
2018-03-07T21:18:31.687Z,90.87
2018-03-07T21:20:59.154Z,90.53
2018-03-07T21:23:26.633Z,97.63
2018-03-07T21:25:54.093Z,92.97
2018-03-07T21:28:21.598Z,93.70
2018-03-07T21:30:49.818Z,93.47
2018-03-07T21:33:22.857Z,90.33
2018-03-07T21:35:50.681Z,96.30
2018-03-07T21:38:18.125Z,89.10
2018-03-07T21:40:45.601Z,92.13
2018-03-07T21:43:13.062Z,97.30
2018-03-07T21:45:42.446Z,92.20
2018-03-07T21:48:09.925Z,89.17
2018-03-07T21:50:37.393Z,100.27
2018-03-07T21:53:04.933Z,94.70
2018-03-07T21:55:34.321Z,84.47
2018-03-07T21:58:01.801Z,86.37
2018-03-07T22:00:29.274Z,88.33
2018-03-07T22:02:56.734Z,96.50
2018-03-07T22:05:24.190Z,86.43
2018-03-07T22:07:51.655Z,81.07
2018-03-07T22:10:19.921Z,84.93
2018-03-07T22:12:47.390Z,79.13
2018-03-07T22:15:15.681Z,83.50
2018-03-07T22:17:43.913Z,85.40
2018-03-07T22:20:11.398Z,81.13
2018-03-07T22:22:39.641Z,76.30
2018-03-07T22:25:07.124Z,78.00
2018-03-07T22:27:34.725Z,75.10
2018-03-07T22:30:02.223Z,77.63
2018-03-07T22:32:30.438Z,75.07
2018-03-07T22:34:58.676Z,75.43
2018-03-07T22:37:26.132Z,82.63
2018-03-07T22:39:53.612Z,74.07
2018-03-07T22:42:21.065Z,71.47
2018-03-07T22:44:48.522Z,71.77
2018-03-07T22:47:15.965Z,77.37
2018-03-07T22:49:43.446Z,66.17
2018-03-07T22:52:11.677Z,75.67
2018-03-07T22:54:39.222Z,71.87
2018-03-07T22:57:07.627Z,69.83
2018-03-07T22:59:35.112Z,74.80
2018-03-07T23:02:02.572Z,77.37
2018-03-07T23:04:30.044Z,80.70
2018-03-07T23:06:58.303Z,75.10
2018-03-07T23:09:26.549Z,80.17
2018-03-07T23:11:54.803Z,70.87
2018-03-07T23:14:22.251Z,68.00
2018-03-07T23:16:49.738Z,63.80
2018-03-07T23:19:17.209Z,64.23
2018-03-07T23:21:45.473Z,71.60
2018-03-07T23:24:12.933Z,80.03
2018-03-07T23:26:40.442Z,72.83
2018-03-07T23:29:07.895Z,66.60
2018-03-07T23:31:36.129Z,72.90
2018-03-07T23:34:03.594Z,69.47
2018-03-07T23:36:31.086Z,64.93
2018-03-07T23:38:59.330Z,68.20
2018-03-07T23:41:26.869Z,66.80
2018-03-07T23:43:54.325Z,70.50
2018-03-07T23:46:21.798Z,68.67
2018-03-07T23:48:49.261Z,67.30
2018-03-07T23:51:16.736Z,68.80
2018-03-07T23:53:44.189Z,64.53
2018-03-07T23:56:11.662Z,68.70
2018-03-07T23:58:39.893Z,65.13
